sensor_id;sensor_type;location;lat;lon;timestamp;pressure;altitude;pressure_sealevel;temperature;humidity
59419;BME280;45224;50.904;6.038;2023-08-24T00:00:45;100034.50;;;22.76;52.82
59419;BME280;45224;50.904;6.038;2023-08-24T00:02:15;100028.38;;;22.76;53.23
59419;BME280;45224;50.904;6.038;2023-08-24T00:03:47;100033.78;;;22.73;52.91
59419;BME280;45224;50.904;6.038;2023-08-24T00:05:19;100039.06;;;22.73;52.92
59419;BME280;45224;50.904;6.038;2023-08-24T00:06:51;100026.94;;;22.69;53.09
59419;BME280;45224;50.904;6.038;2023-08-24T00:08:22;100026.94;;;22.69;53.50
59419;BME280;45224;50.904;6.038;2023-08-24T00:09:53;100026.09;;;22.68;53.27
59419;BME280;45224;50.904;6.038;2023-08-24T00:11:23;100024.31;;;22.69;53.35
59419;BME280;45224;50.904;6.038;2023-08-24T00:12:54;100012.97;;;22.67;53.15
59419;BME280;45224;50.904;6.038;2023-08-24T00:14:24;100013.81;;;22.67;53.10
59419;BME280;45224;50.904;6.038;2023-08-24T00:15:55;100018.47;;;22.62;53.43
59419;BME280;45224;50.904;6.038;2023-08-24T00:17:25;100020.31;;;22.60;53.62
59419;BME280;45224;50.904;6.038;2023-08-24T00:18:55;100016.91;;;22.58;53.79
59419;BME280;45224;50.904;6.038;2023-08-24T00:20:26;100012.69;;;22.54;53.98
59419;BME280;45224;50.904;6.038;2023-08-24T00:21:57;100011.00;;;22.53;54.34
59419;BME280;45224;50.904;6.038;2023-08-24T00:23:28;100004.94;;;22.51;54.18
59419;BME280;45224;50.904;6.038;2023-08-24T00:24:58;100007.56;;;22.51;54.00
59419;BME280;45224;50.904;6.038;2023-08-24T00:26:29;99998.88;;;22.49;53.97
59419;BME280;45224;50.904;6.038;2023-08-24T00:27:59;99999.66;;;22.51;54.28
59419;BME280;45224;50.904;6.038;2023-08-24T00:29:30;99998.13;;;22.47;54.39
59419;BME280;45224;50.904;6.038;2023-08-24T00:31:00;99992.84;;;22.47;54.62
59419;BME280;45224;50.904;6.038;2023-08-24T00:32:31;99985.84;;;22.46;54.89
59419;BME280;45224;50.904;6.038;2023-08-24T00:34:04;99981.50;;;22.45;54.89
59419;BME280;45224;50.904;6.038;2023-08-24T00:35:35;99993.91;;;22.42;54.98
59419;BME280;45224;50.904;6.038;2023-08-24T00:37:06;99994.03;;;22.39;55.70
59419;BME280;45224;50.904;6.038;2023-08-24T00:38:37;99987.22;;;22.35;56.29
59419;BME280;45224;50.904;6.038;2023-08-24T00:40:08;99983.78;;;22.33;56.23
59419;BME280;45224;50.904;6.038;2023-08-24T00:41:40;99983.00;;;22.31;56.59
59419;BME280;45224;50.904;6.038;2023-08-24T00:43:13;99971.00;;;22.24;56.79
59419;BME280;45224;50.904;6.038;2023-08-24T00:44:43;99984.97;;;22.26;56.85
59419;BME280;45224;50.904;6.038;2023-08-24T00:46:14;99987.72;;;22.23;57.24
59419;BME280;45224;50.904;6.038;2023-08-24T00:47:46;99987.88;;;22.20;57.05
59419;BME280;45224;50.904;6.038;2023-08-24T00:49:17;99994.22;;;22.16;56.80
59419;BME280;45224;50.904;6.038;2023-08-24T00:50:48;99984.72;;;22.12;56.68
59419;BME280;45224;50.904;6.038;2023-08-24T00:52:18;99990.06;;;22.10;56.65
59419;BME280;45224;50.904;6.038;2023-08-24T00:53:49;99990.13;;;22.09;57.02
59419;BME280;45224;50.904;6.038;2023-08-24T00:55:20;99990.00;;;22.12;56.54
59419;BME280;45224;50.904;6.038;2023-08-24T00:56:51;99985.56;;;22.12;56.55
59419;BME280;45224;50.904;6.038;2023-08-24T00:58:23;99983.00;;;22.11;56.63
59419;BME280;45224;50.904;6.038;2023-08-24T00:59:55;99979.59;;;22.09;56.58
59419;BME280;45224;50.904;6.038;2023-08-24T01:01:26;99975.47;;;22.03;57.12
59419;BME280;45224;50.904;6.038;2023-08-24T01:02:56;99983.50;;;22.00;56.98
59419;BME280;45224;50.904;6.038;2023-08-24T01:04:27;99970.22;;;22.03;56.76
59419;BME280;45224;50.904;6.038;2023-08-24T01:05:57;99968.41;;;22.03;57.07
59419;BME280;45224;50.904;6.038;2023-08-24T01:07:28;99969.34;;;22.02;57.58
59419;BME280;45224;50.904;6.038;2023-08-24T01:08:58;99983.44;;;22.01;57.55
59419;BME280;45224;50.904;6.038;2023-08-24T01:10:38;99972.09;;;21.99;57.58
59419;BME280;45224;50.904;6.038;2023-08-24T01:12:22;99965.16;;;21.98;57.93
59419;BME280;45224;50.904;6.038;2023-08-24T01:13:59;99979.22;;;21.97;57.94
59419;BME280;45224;50.904;6.038;2023-08-24T01:15:48;99982.84;;;21.95;57.83
59419;BME280;45224;50.904;6.038;2023-08-24T01:17:23;99985.69;;;21.90;58.21
59419;BME280;45224;50.904;6.038;2023-08-24T01:18:56;99983.25;;;21.85;57.97
59419;BME280;45224;50.904;6.038;2023-08-24T01:20:27;99979.03;;;21.81;57.85
59419;BME280;45224;50.904;6.038;2023-08-24T01:22:00;99967.72;;;21.79;57.63
59419;BME280;45224;50.904;6.038;2023-08-24T01:25:52;99959.91;;;21.78;57.31
59419;BME280;45224;50.904;6.038;2023-08-24T01:27:23;99953.78;;;21.77;57.38
59419;BME280;45224;50.904;6.038;2023-08-24T01:28:55;99945.81;;;21.79;57.31
59419;BME280;45224;50.904;6.038;2023-08-24T01:30:29;99946.59;;;21.81;57.20
59419;BME280;45224;50.904;6.038;2023-08-24T01:32:01;99948.53;;;21.77;57.35
59419;BME280;45224;50.904;6.038;2023-08-24T01:33:31;99947.50;;;21.80;57.38
59419;BME280;45224;50.904;6.038;2023-08-24T01:35:04;99948.38;;;21.80;57.06
59419;BME280;45224;50.904;6.038;2023-08-24T01:36:35;99945.88;;;21.77;56.91
59419;BME280;45224;50.904;6.038;2023-08-24T01:38:07;99938.91;;;21.76;56.97
59419;BME280;45224;50.904;6.038;2023-08-24T01:39:46;99938.84;;;21.78;57.13
59419;BME280;45224;50.904;6.038;2023-08-24T01:41:25;99938.13;;;21.74;57.01
59419;BME280;45224;50.904;6.038;2023-08-24T01:42:59;99933.72;;;21.75;56.93
59419;BME280;45224;50.904;6.038;2023-08-24T01:44:35;99925.03;;;21.73;56.86
59419;BME280;45224;50.904;6.038;2023-08-24T01:46:08;99917.28;;;21.69;57.03
59419;BME280;45224;50.904;6.038;2023-08-24T01:47:39;99909.25;;;21.73;57.25
59419;BME280;45224;50.904;6.038;2023-08-24T01:49:13;99916.22;;;21.74;57.48
59419;BME280;45224;50.904;6.038;2023-08-24T01:50:45;99907.41;;;21.75;57.04
59419;BME280;45224;50.904;6.038;2023-08-24T01:52:17;99909.25;;;21.73;57.24
59419;BME280;45224;50.904;6.038;2023-08-24T01:53:48;99913.50;;;21.75;57.61
59419;BME280;45224;50.904;6.038;2023-08-24T01:55:20;99921.34;;;21.77;57.65
59419;BME280;45224;50.904;6.038;2023-08-24T01:56:50;99924.03;;;21.75;57.94
59419;BME280;45224;50.904;6.038;2023-08-24T01:58:21;99927.66;;;21.73;57.97
59419;BME280;45224;50.904;6.038;2023-08-24T01:59:51;99938.25;;;21.71;58.46
59419;BME280;45224;50.904;6.038;2023-08-24T02:01:22;99936.53;;;21.70;58.23
59419;BME280;45224;50.904;6.038;2023-08-24T02:02:53;99932.41;;;21.64;58.20
59419;BME280;45224;50.904;6.038;2023-08-24T02:04:24;99931.53;;;21.64;57.63
59419;BME280;45224;50.904;6.038;2023-08-24T02:05:54;99937.69;;;21.64;58.45
59419;BME280;45224;50.904;6.038;2023-08-24T02:07:25;99934.09;;;21.65;58.02
59419;BME280;45224;50.904;6.038;2023-08-24T02:08:55;99926.28;;;21.64;57.72
59419;BME280;45224;50.904;6.038;2023-08-24T02:10:26;99937.63;;;21.66;57.90
59419;BME280;45224;50.904;6.038;2023-08-24T02:11:56;99932.28;;;21.67;57.41
59419;BME280;45224;50.904;6.038;2023-08-24T02:13:27;99935.69;;;21.69;57.37
59419;BME280;45224;50.904;6.038;2023-08-24T02:14:57;99928.66;;;21.70;57.42
59419;BME280;45224;50.904;6.038;2023-08-24T02:16:28;99925.03;;;21.73;57.15
59419;BME280;45224;50.904;6.038;2023-08-24T02:17:58;99917.94;;;21.75;56.11
59419;BME280;45224;50.904;6.038;2023-08-24T02:19:29;99918.63;;;21.78;56.65
59419;BME280;45224;50.904;6.038;2023-08-24T02:20:59;99923.75;;;21.81;56.35
59419;BME280;45224;50.904;6.038;2023-08-24T02:22:30;99921.06;;;21.83;56.21
59419;BME280;45224;50.904;6.038;2023-08-24T02:24:01;99930.63;;;21.85;55.97
59419;BME280;45224;50.904;6.038;2023-08-24T02:25:31;99924.34;;;21.88;56.21
59419;BME280;45224;50.904;6.038;2023-08-24T02:27:02;99917.31;;;21.88;56.08
59419;BME280;45224;50.904;6.038;2023-08-24T02:28:33;99910.97;;;21.93;55.33
59419;BME280;45224;50.904;6.038;2023-08-24T02:30:04;99905.66;;;21.94;55.03
59419;BME280;45224;50.904;6.038;2023-08-24T02:31:34;99911.56;;;21.99;54.70
59419;BME280;45224;50.904;6.038;2023-08-24T02:33:05;99915.91;;;22.00;55.35
59419;BME280;45224;50.904;6.038;2023-08-24T02:34:35;99913.41;;;21.97;55.36
59419;BME280;45224;50.904;6.038;2023-08-24T02:36:06;99910.78;;;21.97;55.42
59419;BME280;45224;50.904;6.038;2023-08-24T02:37:36;99914.13;;;22.01;54.85
59419;BME280;45224;50.904;6.038;2023-08-24T02:39:07;99921.94;;;22.02;55.14
59419;BME280;45224;50.904;6.038;2023-08-24T02:40:38;99918.41;;;22.03;55.17
59419;BME280;45224;50.904;6.038;2023-08-24T02:42:09;99924.50;;;22.04;55.71
59419;BME280;45224;50.904;6.038;2023-08-24T02:43:40;99919.25;;;22.04;55.61
59419;BME280;45224;50.904;6.038;2023-08-24T02:45:10;99919.25;;;22.04;54.78
59419;BME280;45224;50.904;6.038;2023-08-24T02:46:44;99909.53;;;22.06;54.60
59419;BME280;45224;50.904;6.038;2023-08-24T02:48:15;99911.28;;;22.05;55.29
59419;BME280;45224;50.904;6.038;2023-08-24T02:49:45;99924.31;;;22.09;54.91
59419;BME280;45224;50.904;6.038;2023-08-24T02:51:16;99927.88;;;22.08;54.56
59419;BME280;45224;50.904;6.038;2023-08-24T02:52:46;99930.59;;;22.06;54.62
59419;BME280;45224;50.904;6.038;2023-08-24T02:54:17;99934.19;;;22.03;54.99
59419;BME280;45224;50.904;6.038;2023-08-24T02:55:48;99925.53;;;22.01;54.97
59419;BME280;45224;50.904;6.038;2023-08-24T02:57:18;99926.28;;;22.03;54.64
59419;BME280;45224;50.904;6.038;2023-08-24T02:58:48;99928.28;;;21.98;54.30
59419;BME280;45224;50.904;6.038;2023-08-24T03:00:19;99938.69;;;22.01;54.51
59419;BME280;45224;50.904;6.038;2023-08-24T03:01:49;99937.88;;;21.99;54.31
59419;BME280;45224;50.904;6.038;2023-08-24T03:03:20;99948.41;;;21.99;53.95
59419;BME280;45224;50.904;6.038;2023-08-24T03:04:51;99962.50;;;21.98;54.51
59419;BME280;45224;50.904;6.038;2023-08-24T03:06:21;99974.00;;;21.96;54.25
59419;BME280;45224;50.904;6.038;2023-08-24T03:07:54;99983.69;;;21.95;53.69
59419;BME280;45224;50.904;6.038;2023-08-24T03:09:25;99985.56;;;21.93;53.83
59419;BME280;45224;50.904;6.038;2023-08-24T03:10:55;99994.50;;;21.89;53.30
59419;BME280;45224;50.904;6.038;2023-08-24T03:12:26;99990.06;;;21.89;53.24
59419;BME280;45224;50.904;6.038;2023-08-24T03:13:57;99992.63;;;21.91;53.27
59419;BME280;45224;50.904;6.038;2023-08-24T03:15:27;99990.81;;;21.93;53.34
59419;BME280;45224;50.904;6.038;2023-08-24T03:16:58;99981.13;;;21.94;53.43
59419;BME280;45224;50.904;6.038;2023-08-24T03:18:28;99974.09;;;21.94;54.08
59419;BME280;45224;50.904;6.038;2023-08-24T03:19:59;99973.88;;;21.99;53.87
59419;BME280;45224;50.904;6.038;2023-08-24T03:21:30;99967.78;;;21.98;53.44
59419;BME280;45224;50.904;6.038;2023-08-24T03:23:01;99966.69;;;22.02;53.56
59419;BME280;45224;50.904;6.038;2023-08-24T03:24:31;99965.78;;;22.03;54.73
59419;BME280;45224;50.904;6.038;2023-08-24T03:26:02;99968.41;;;22.03;54.32
59419;BME280;45224;50.904;6.038;2023-08-24T03:27:33;99962.25;;;22.04;55.02
59419;BME280;45224;50.904;6.038;2023-08-24T03:29:03;99969.19;;;22.05;56.51
59419;BME280;45224;50.904;6.038;2023-08-24T03:30:39;99958.66;;;22.05;56.86
59419;BME280;45224;50.904;6.038;2023-08-24T03:32:09;99955.31;;;22.02;56.92
59419;BME280;45224;50.904;6.038;2023-08-24T03:33:40;99941.31;;;22.01;58.08
59419;BME280;45224;50.904;6.038;2023-08-24T03:35:10;99944.09;;;21.98;57.97
59419;BME280;45224;50.904;6.038;2023-08-24T03:36:42;99942.28;;;21.99;58.89
59419;BME280;45224;50.904;6.038;2023-08-24T03:38:14;99944.16;;;21.97;59.31
59419;BME280;45224;50.904;6.038;2023-08-24T03:39:44;99952.25;;;21.92;60.26
59419;BME280;45224;50.904;6.038;2023-08-24T03:41:15;99950.53;;;21.91;60.52
59419;BME280;45224;50.904;6.038;2023-08-24T03:42:45;99943.63;;;21.88;60.73
59419;BME280;45224;50.904;6.038;2023-08-24T03:44:16;99935.75;;;21.88;60.75
59419;BME280;45224;50.904;6.038;2023-08-24T03:45:46;99928.84;;;21.86;60.36
59419;BME280;45224;50.904;6.038;2023-08-24T03:47:17;99927.91;;;21.87;60.88
59419;BME280;45224;50.904;6.038;2023-08-24T03:48:47;99919.31;;;21.83;62.33
59419;BME280;45224;50.904;6.038;2023-08-24T03:50:18;99914.25;;;21.79;63.29
59419;BME280;45224;50.904;6.038;2023-08-24T03:51:48;99911.75;;;21.76;64.02
59419;BME280;45224;50.904;6.038;2023-08-24T03:53:19;99909.13;;;21.76;64.57
59419;BME280;45224;50.904;6.038;2023-08-24T03:54:51;99906.50;;;21.76;65.60
59419;BME280;45224;50.904;6.038;2023-08-24T03:56:21;99901.50;;;21.69;65.99
59419;BME280;45224;50.904;6.038;2023-08-24T03:57:52;99885.06;;;21.64;66.85
59419;BME280;45224;50.904;6.038;2023-08-24T03:59:24;99875.06;;;21.52;68.00
59419;BME280;45224;50.904;6.038;2023-08-24T04:00:55;99854.38;;;21.43;69.21
59419;BME280;45224;50.904;6.038;2023-08-24T04:02:25;99850.84;;;21.44;70.20
59419;BME280;45224;50.904;6.038;2023-08-24T04:03:57;99834.44;;;21.39;70.30
59419;BME280;45224;50.904;6.038;2023-08-24T04:05:28;99820.13;;;21.25;72.05
59419;BME280;45224;50.904;6.038;2023-08-24T04:06:59;99815.44;;;21.11;73.60
59419;BME280;45224;50.904;6.038;2023-08-24T04:08:30;99819.72;;;20.93;74.22
59419;BME280;45224;50.904;6.038;2023-08-24T04:10:00;99818.00;;;20.92;74.33
59419;BME280;45224;50.904;6.038;2023-08-24T04:11:31;99803.50;;;20.84;73.45
59419;BME280;45224;50.904;6.038;2023-08-24T04:13:01;99801.19;;;20.76;74.06
59419;BME280;45224;50.904;6.038;2023-08-24T04:14:32;99806.38;;;20.77;74.40
59419;BME280;45224;50.904;6.038;2023-08-24T04:16:03;99808.28;;;20.74;74.00
59419;BME280;45224;50.904;6.038;2023-08-24T04:17:34;99817.91;;;20.73;74.26
59419;BME280;45224;50.904;6.038;2023-08-24T04:19:04;99830.22;;;20.73;75.11
59419;BME280;45224;50.904;6.038;2023-08-24T04:20:35;99840.06;;;20.68;75.98
59419;BME280;45224;50.904;6.038;2023-08-24T04:22:05;99832.31;;;20.63;75.98
59419;BME280;45224;50.904;6.038;2023-08-24T04:23:35;99828.84;;;20.63;75.11
59419;BME280;45224;50.904;6.038;2023-08-24T04:25:06;99830.00;;;20.55;76.12
59419;BME280;45224;50.904;6.038;2023-08-24T04:26:37;99828.44;;;20.51;75.37
59419;BME280;45224;50.904;6.038;2023-08-24T04:28:07;99831.13;;;20.50;75.10
59419;BME280;45224;50.904;6.038;2023-08-24T04:29:38;99812.75;;;20.50;75.24
59419;BME280;45224;50.904;6.038;2023-08-24T04:31:08;99817.63;;;20.37;76.23
59419;BME280;45224;50.904;6.038;2023-08-24T04:32:39;99825.28;;;20.43;75.92
59419;BME280;45224;50.904;6.038;2023-08-24T04:34:09;99825.28;;;20.43;76.55
59419;BME280;45224;50.904;6.038;2023-08-24T04:35:41;99822.22;;;20.32;77.34
59419;BME280;45224;50.904;6.038;2023-08-24T04:37:12;99833.38;;;20.37;77.51
59419;BME280;45224;50.904;6.038;2023-08-24T04:38:42;99825.44;;;20.38;77.09
59419;BME280;45224;50.904;6.038;2023-08-24T04:40:14;99826.41;;;20.36;77.83
59419;BME280;45224;50.904;6.038;2023-08-24T04:41:44;99823.72;;;20.37;77.65
59419;BME280;45224;50.904;6.038;2023-08-24T04:43:15;99821.16;;;20.36;77.82
59419;BME280;45224;50.904;6.038;2023-08-24T04:44:46;99820.25;;;20.37;78.42
59419;BME280;45224;50.904;6.038;2023-08-24T04:46:16;99820.97;;;20.40;77.73
59419;BME280;45224;50.904;6.038;2023-08-24T04:47:47;99813.94;;;20.41;78.98
59419;BME280;45224;50.904;6.038;2023-08-24T04:49:17;99812.19;;;20.41;79.48
59419;BME280;45224;50.904;6.038;2023-08-24T04:50:47;99811.31;;;20.41;79.11
59419;BME280;45224;50.904;6.038;2023-08-24T04:52:19;99816.38;;;20.46;77.86
59419;BME280;45224;50.904;6.038;2023-08-24T04:53:49;99806.81;;;20.45;78.97
59419;BME280;45224;50.904;6.038;2023-08-24T04:55:20;99809.38;;;20.46;78.65
59419;BME280;45224;50.904;6.038;2023-08-24T04:56:50;99807.78;;;20.42;79.75
59419;BME280;45224;50.904;6.038;2023-08-24T04:58:21;99797.53;;;20.36;79.60
59419;BME280;45224;50.904;6.038;2023-08-24T04:59:52;99803.03;;;20.30;80.82
59419;BME280;45224;50.904;6.038;2023-08-24T05:01:26;99801.09;;;20.35;80.29
59419;BME280;45224;50.904;6.038;2023-08-24T05:02:56;99802.78;;;20.36;80.59
59419;BME280;45224;50.904;6.038;2023-08-24T05:04:28;99798.25;;;20.39;79.83
59419;BME280;45224;50.904;6.038;2023-08-24T05:05:58;99804.38;;;20.40;80.09
59419;BME280;45224;50.904;6.038;2023-08-24T05:07:28;99795.84;;;20.35;80.51
59419;BME280;45224;50.904;6.038;2023-08-24T05:08:59;99798.47;;;20.35;81.30
59419;BME280;45224;50.904;6.038;2023-08-24T05:10:30;99796.69;;;20.35;80.98
59419;BME280;45224;50.904;6.038;2023-08-24T05:12:01;99792.16;;;20.39;80.74
59419;BME280;45224;50.904;6.038;2023-08-24T05:13:31;99792.41;;;20.33;82.03
59419;BME280;45224;50.904;6.038;2023-08-24T05:15:02;99794.91;;;20.36;81.72
59419;BME280;45224;50.904;6.038;2023-08-24T05:16:33;99786.19;;;20.35;82.37
59419;BME280;45224;50.904;6.038;2023-08-24T05:18:03;99786.91;;;20.39;81.50
59419;BME280;45224;50.904;6.038;2023-08-24T05:19:34;99792.22;;;20.37;82.02
59419;BME280;45224;50.904;6.038;2023-08-24T05:21:05;99799.13;;;20.40;82.86
59419;BME280;45224;50.904;6.038;2023-08-24T05:22:36;99789.53;;;20.39;82.48
59419;BME280;45224;50.904;6.038;2023-08-24T05:24:07;99794.00;;;20.37;83.49
59419;BME280;45224;50.904;6.038;2023-08-24T05:25:37;99786.06;;;20.38;83.83
59419;BME280;45224;50.904;6.038;2023-08-24T05:27:07;99786.19;;;20.35;83.86
59419;BME280;45224;50.904;6.038;2023-08-24T05:28:38;99789.53;;;20.39;83.47
59419;BME280;45224;50.904;6.038;2023-08-24T05:30:09;99788.88;;;20.34;84.36
59419;BME280;45224;50.904;6.038;2023-08-24T05:31:39;99781.00;;;20.34;84.21
59419;BME280;45224;50.904;6.038;2023-08-24T05:33:09;99781.66;;;20.39;84.59
59419;BME280;45224;50.904;6.038;2023-08-24T05:34:40;99787.03;;;20.36;84.68
59419;BME280;45224;50.904;6.038;2023-08-24T05:36:10;99784.41;;;20.36;84.64
59419;BME280;45224;50.904;6.038;2023-08-24T05:37:41;99787.69;;;20.41;84.81
59419;BME280;45224;50.904;6.038;2023-08-24T05:39:11;99784.88;;;20.46;83.43
59419;BME280;45224;50.904;6.038;2023-08-24T05:40:43;99785.69;;;20.48;83.75
59419;BME280;45224;50.904;6.038;2023-08-24T05:42:13;99782.97;;;20.49;84.53
59419;BME280;45224;50.904;6.038;2023-08-24T05:43:43;99776.03;;;20.48;84.60
59419;BME280;45224;50.904;6.038;2023-08-24T05:45:14;99775.97;;;20.50;84.52
59419;BME280;45224;50.904;6.038;2023-08-24T05:46:46;99779.31;;;20.53;84.48
59419;BME280;45224;50.904;6.038;2023-08-24T05:48:16;99776.56;;;20.56;84.52
59419;BME280;45224;50.904;6.038;2023-08-24T05:49:47;99779.06;;;20.59;85.24
59419;BME280;45224;50.904;6.038;2023-08-24T05:51:17;99769.13;;;20.68;84.45
59419;BME280;45224;50.904;6.038;2023-08-24T05:52:47;99762.09;;;20.68;84.66
59419;BME280;45224;50.904;6.038;2023-08-24T05:54:18;99756.66;;;20.73;84.98
59419;BME280;45224;50.904;6.038;2023-08-24T05:55:49;99752.19;;;20.75;84.83
59419;BME280;45224;50.904;6.038;2023-08-24T05:57:19;99753.69;;;20.81;85.28
59419;BME280;45224;50.904;6.038;2023-08-24T05:58:50;99749.94;;;20.86;85.07
59419;BME280;45224;50.904;6.038;2023-08-24T06:00:21;99748.78;;;20.93;85.22
59419;BME280;45224;50.904;6.038;2023-08-24T06:01:52;99747.56;;;21.01;84.72
59419;BME280;45224;50.904;6.038;2023-08-24T06:03:24;99738.72;;;21.03;85.00
59419;BME280;45224;50.904;6.038;2023-08-24T06:04:54;99732.97;;;21.14;84.21
59419;BME280;45224;50.904;6.038;2023-08-24T06:06:24;99735.88;;;21.08;85.41
59419;BME280;45224;50.904;6.038;2023-08-24T06:07:55;99727.59;;;21.17;84.87
59419;BME280;45224;50.904;6.038;2023-08-24T06:09:25;99729.84;;;21.25;85.21
59419;BME280;45224;50.904;6.038;2023-08-24T06:10:57;99720.34;;;21.22;85.13
59419;BME280;45224;50.904;6.038;2023-08-24T06:12:27;99724.47;;;21.28;85.76
59419;BME280;45224;50.904;6.038;2023-08-24T06:13:58;99722.19;;;21.39;85.51
59419;BME280;45224;50.904;6.038;2023-08-24T06:15:29;99712.25;;;21.46;84.89
59419;BME280;45224;50.904;6.038;2023-08-24T06:16:59;99711.84;;;21.55;84.34
59419;BME280;45224;50.904;6.038;2023-08-24T06:18:30;99715.69;;;21.67;84.45
59419;BME280;45224;50.904;6.038;2023-08-24T06:20:02;99705.00;;;21.70;84.04
59419;BME280;45224;50.904;6.038;2023-08-24T06:21:33;99710.13;;;21.73;83.94
59419;BME280;45224;50.904;6.038;2023-08-24T06:23:04;99708.06;;;21.80;83.79
59419;BME280;45224;50.904;6.038;2023-08-24T06:24:35;99708.78;;;21.83;83.63
59419;BME280;45224;50.904;6.038;2023-08-24T06:26:06;99695.38;;;21.88;83.14
59419;BME280;45224;50.904;6.038;2023-08-24T06:27:36;99700.44;;;21.93;82.96
59419;BME280;45224;50.904;6.038;2023-08-24T06:29:07;99701.84;;;22.00;83.27
59419;BME280;45224;50.904;6.038;2023-08-24T06:30:38;99704.25;;;22.04;83.20
59419;BME280;45224;50.904;6.038;2023-08-24T06:32:09;99698.19;;;22.02;83.74
59419;BME280;45224;50.904;6.038;2023-08-24T06:33:40;99704.59;;;22.16;82.90
59419;BME280;45224;50.904;6.038;2023-08-24T06:35:10;99694.69;;;22.21;82.69
59419;BME280;45224;50.904;6.038;2023-08-24T06:36:44;99690.69;;;22.31;82.64
59419;BME280;45224;50.904;6.038;2023-08-24T06:38:15;99694.88;;;22.35;82.75
59419;BME280;45224;50.904;6.038;2023-08-24T06:39:46;99685.09;;;22.37;81.99
59419;BME280;45224;50.904;6.038;2023-08-24T06:41:16;99686.47;;;22.45;82.15
59419;BME280;45224;50.904;6.038;2023-08-24T06:42:47;99682.47;;;22.55;81.80
59419;BME280;45224;50.904;6.038;2023-08-24T06:44:17;99680.28;;;22.63;80.91
59419;BME280;45224;50.904;6.038;2023-08-24T06:45:48;99680.50;;;22.76;80.07
59419;BME280;45224;50.904;6.038;2023-08-24T06:47:18;99679.47;;;22.78;79.89
59419;BME280;45224;50.904;6.038;2023-08-24T06:48:48;99680.56;;;22.92;79.52
59419;BME280;45224;50.904;6.038;2023-08-24T06:50:19;99681.00;;;23.00;79.09
59419;BME280;45224;50.904;6.038;2023-08-24T06:51:50;99681.91;;;22.99;79.85
59419;BME280;45224;50.904;6.038;2023-08-24T06:53:20;99689.06;;;23.14;79.12
59419;BME280;45224;50.904;6.038;2023-08-24T06:54:50;99696.28;;;23.27;78.45
59419;BME280;45224;50.904;6.038;2023-08-24T06:56:23;99699.91;;;23.42;77.57
59419;BME280;45224;50.904;6.038;2023-08-24T06:57:54;99689.59;;;23.53;77.12
59419;BME280;45224;50.904;6.038;2023-08-24T06:59:25;99686.44;;;23.62;76.74
59419;BME280;45224;50.904;6.038;2023-08-24T07:00:55;99679.81;;;23.71;76.15
59419;BME280;45224;50.904;6.038;2023-08-24T07:02:27;99677.41;;;23.82;76.12
59419;BME280;45224;50.904;6.038;2023-08-24T07:03:58;99672.31;;;23.95;75.98
59419;BME280;45224;50.904;6.038;2023-08-24T07:05:29;99673.28;;;24.09;75.80
59419;BME280;45224;50.904;6.038;2023-08-24T07:06:59;99679.72;;;24.19;75.26
59419;BME280;45224;50.904;6.038;2023-08-24T07:08:30;99672.91;;;24.31;74.94
59419;BME280;45224;50.904;6.038;2023-08-24T07:10:00;99673.88;;;24.44;74.41
59419;BME280;45224;50.904;6.038;2023-08-24T07:11:31;99675.09;;;24.53;74.30
59419;BME280;45224;50.904;6.038;2023-08-24T07:13:01;99679.13;;;24.60;73.84
59419;BME280;45224;50.904;6.038;2023-08-24T07:14:33;99671.31;;;24.73;73.21
59419;BME280;45224;50.904;6.038;2023-08-24T07:16:03;99672.16;;;24.88;72.65
59419;BME280;45224;50.904;6.038;2023-08-24T07:17:34;99671.50;;;24.99;72.34
59419;BME280;45224;50.904;6.038;2023-08-24T07:19:04;99666.59;;;25.07;72.05
59419;BME280;45224;50.904;6.038;2023-08-24T07:20:37;99666.41;;;25.10;70.93
59419;BME280;45224;50.904;6.038;2023-08-24T07:22:07;99669.41;;;25.32;70.69
59419;BME280;45224;50.904;6.038;2023-08-24T07:23:38;99671.94;;;25.48;70.69
59419;BME280;45224;50.904;6.038;2023-08-24T07:25:09;99673.78;;;25.61;70.87
59419;BME280;45224;50.904;6.038;2023-08-24T07:26:41;99673.28;;;25.68;69.15
59419;BME280;45224;50.904;6.038;2023-08-24T07:28:12;99663.59;;;25.82;68.01
59419;BME280;45224;50.904;6.038;2023-08-24T07:29:42;99668.06;;;25.81;67.14
59419;BME280;45224;50.904;6.038;2023-08-24T07:31:13;99674.16;;;25.96;67.64
59419;BME280;45224;50.904;6.038;2023-08-24T07:32:43;99665.81;;;26.02;66.48
59419;BME280;45224;50.904;6.038;2023-08-24T07:34:14;99662.91;;;26.20;67.59
59419;BME280;45224;50.904;6.038;2023-08-24T07:35:45;99663.13;;;26.30;66.85
59419;BME280;45224;50.904;6.038;2023-08-24T07:37:16;99673.84;;;26.41;64.69
59419;BME280;45224;50.904;6.038;2023-08-24T07:38:47;99680.13;;;26.53;65.77
59419;BME280;45224;50.904;6.038;2023-08-24T07:40:18;99674.00;;;26.65;65.82
59419;BME280;45224;50.904;6.038;2023-08-24T07:41:48;99679.31;;;26.65;62.47
59419;BME280;45224;50.904;6.038;2023-08-24T07:43:19;99678.69;;;26.74;61.93
59419;BME280;45224;50.904;6.038;2023-08-24T07:44:50;99671.25;;;26.80;61.37
59419;BME280;45224;50.904;6.038;2023-08-24T07:46:20;99674.63;;;26.82;60.89
59419;BME280;45224;50.904;6.038;2023-08-24T07:47:51;99677.09;;;26.85;61.10
59419;BME280;45224;50.904;6.038;2023-08-24T07:49:22;99671.47;;;26.89;60.80
59419;BME280;45224;50.904;6.038;2023-08-24T07:50:52;99672.72;;;26.96;60.08
59419;BME280;45224;50.904;6.038;2023-08-24T07:52:22;99671.88;;;26.83;58.24
59419;BME280;45224;50.904;6.038;2023-08-24T07:53:57;99674.31;;;26.99;59.26
59419;BME280;45224;50.904;6.038;2023-08-24T07:55:28;99665.25;;;27.14;59.63
59419;BME280;45224;50.904;6.038;2023-08-24T07:56:58;99652.81;;;27.28;59.03
59419;BME280;45224;50.904;6.038;2023-08-24T07:58:29;99656.31;;;27.41;57.37
59419;BME280;45224;50.904;6.038;2023-08-24T08:00:05;99655.75;;;27.49;57.77
59419;BME280;45224;50.904;6.038;2023-08-24T08:01:42;99656.72;;;27.48;56.01
59419;BME280;45224;50.904;6.038;2023-08-24T08:03:13;99657.00;;;27.56;55.13
59419;BME280;45224;50.904;6.038;2023-08-24T08:04:44;99651.34;;;27.61;54.75